Time;durP1;ratioP1;P1;durP2;ratioP2;P2;SDS_P1;SDS_P2;PMS_P1;PMS_P2;Temp;Humidity;BMP_temperature;BMP_pressure;BME280_temperature;BME280_humidity;BME280_pressure;Samples;Min_cycle;Max_cycle;Signal;HPM_P1;HPM_P2
2022/06/04 00:00:33;;;;;;;2.87;2.60;;;17.60;92.90;;;;;;5022230;28;20664;-66
2022/06/04 00:02:58;;;;;;;3.43;3.23;;;17.60;92.50;;;;;;5019740;28;20224;-68
2022/06/04 00:05:26;;;;;;;2.70;2.50;;;17.60;92.70;;;;;;5022408;28;20190;-69
2022/06/04 00:07:53;;;;;;;2.80;2.60;;;17.60;92.50;;;;;;5019922;28;20228;-68
2022/06/04 00:15:51;;;;;;;3.60;3.30;;;17.60;93.00;;;;;;5019450;28;20197;-69
2022/06/04 00:18:19;;;;;;;2.87;2.50;;;17.60;93.00;;;;;;5018262;28;20213;-69
2022/06/04 00:20:46;;;;;;;4.03;3.10;;;17.60;93.20;;;;;;5018599;28;20601;-68
2022/06/04 00:23:12;;;;;;;4.33;3.10;;;17.60;93.50;;;;;;5020812;28;20685;-70
2022/06/04 00:25:40;;;;;;;3.07;2.50;;;17.60;93.20;;;;;;5020276;28;20885;-71
2022/06/04 00:28:08;;;;;;;4.73;3.17;;;17.60;93.30;;;;;;5022197;28;20200;-69
2022/06/04 00:30:34;;;;;;;5.53;2.70;;;17.70;93.40;;;;;;5019717;28;20189;-68
2022/06/04 00:33:00;;;;;;;5.63;2.40;;;17.70;93.80;;;;;;5016101;28;20209;-68
2022/06/04 00:35:26;;;;;;;5.13;2.97;;;17.70;93.60;;;;;;5008902;28;20193;-67
2022/06/04 00:37:52;;;;;;;3.07;2.57;;;17.70;93.90;;;;;;5017036;28;20236;-66
2022/06/04 00:40:32;;;;;;;4.23;2.70;;;17.70;94.00;;;;;;5018632;28;20673;-67
2022/06/04 00:42:59;;;;;;;4.10;2.63;;;17.70;94.00;;;;;;5010103;28;20300;-68
2022/06/04 00:45:36;;;;;;;3.03;2.63;;;17.70;94.10;;;;;;5022802;28;20349;-69
2022/06/04 00:48:05;;;;;;;3.10;2.80;;;17.70;94.50;;;;;;5017580;28;20246;-70
2022/06/04 00:50:33;;;;;;;3.73;3.37;;;17.70;94.40;;;;;;5021562;28;20306;-70
2022/06/04 00:53:01;;;;;;;2.97;2.77;;;17.70;94.20;;;;;;5019313;28;20207;-69
2022/06/04 00:55:36;;;;;;;3.30;3.00;;;17.70;94.60;;;;;;5021718;28;20226;-70
2022/06/04 00:58:13;;;;;;;5.40;3.10;;;17.70;94.50;;;;;;5011636;28;20216;-67
2022/06/04 01:00:46;;;;;;;3.33;3.03;;;17.70;94.40;;;;;;5012965;28;20244;-67
2022/06/04 01:03:32;;;;;;;3.37;2.17;;;17.70;94.60;;;;;;5015408;28;20210;-68
2022/06/04 01:06:26;;;;;;;3.30;3.00;;;17.70;94.50;;;;;;5016658;28;20734;-70
2022/06/04 01:09:01;;;;;;;4.13;3.73;;;17.60;94.70;;;;;;5015785;28;20288;-70
2022/06/04 01:12:09;;;;;;;3.73;2.77;;;17.70;94.90;;;;;;5036865;28;20545;-69
2022/06/04 01:14:54;;;;;;;3.10;2.73;;;17.70;94.80;;;;;;5015593;28;20658;-68
2022/06/04 01:17:37;;;;;;;7.83;3.13;;;17.60;94.80;;;;;;5020141;28;20241;-68
2022/06/04 01:20:24;;;;;;;5.00;3.20;;;17.60;94.90;;;;;;5008094;28;20249;-70
2022/06/04 01:23:24;;;;;;;3.33;2.80;;;17.60;95.20;;;;;;5005923;28;20384;-69
2022/06/04 01:26:41;;;;;;;2.77;2.57;;;17.60;95.30;;;;;;5007725;28;20199;-68
2022/06/04 01:29:22;;;;;;;4.10;2.70;;;17.60;95.60;;;;;;5027469;28;20192;-70
2022/06/04 01:32:01;;;;;;;3.93;2.63;;;17.50;95.60;;;;;;5021531;28;20210;-68
2022/06/04 01:34:42;;;;;;;4.87;2.90;;;17.50;95.80;;;;;;5012369;28;20248;-69
2022/06/04 01:37:13;;;;;;;3.00;2.70;;;17.50;95.80;;;;;;5012559;28;20270;-71
2022/06/04 01:42:31;;;;;;;4.63;2.57;;;17.40;96.10;;;;;;5015326;28;20719;-67
2022/06/04 01:44:58;;;;;;;4.27;3.00;;;17.40;96.30;;;;;;5034139;28;20204;-68
2022/06/04 01:47:27;;;;;;;2.83;2.63;;;17.40;96.10;;;;;;5032144;28;20217;-67
2022/06/04 01:49:56;;;;;;;3.53;3.23;;;17.40;96.30;;;;;;5030211;28;20194;-67
2022/06/04 01:52:37;;;;;;;3.30;2.67;;;17.40;96.40;;;;;;5027138;28;20243;-67
2022/06/04 01:55:12;;;;;;;3.40;3.10;;;17.40;96.70;;;;;;5032064;28;20330;-66
2022/06/04 01:58:00;;;;;;;3.70;3.03;;;17.30;96.70;;;;;;5016581;28;20241;-67
2022/06/04 02:00:35;;;;;;;3.47;3.07;;;17.30;96.70;;;;;;5023071;28;20339;-66
2022/06/04 02:03:09;;;;;;;2.27;2.00;;;17.30;96.80;;;;;;5004991;28;20325;-66
2022/06/04 02:06:03;;;;;;;2.63;2.43;;;17.30;97.00;;;;;;5028611;28;20786;-66
2022/06/04 02:08:38;;;;;;;3.00;2.73;;;17.20;96.80;;;;;;5005057;28;20208;-66
2022/06/04 02:11:13;;;;;;;2.63;2.43;;;17.30;96.70;;;;;;5009874;28;20212;-66
2022/06/04 02:13:40;;;;;;;3.13;2.50;;;17.30;96.50;;;;;;5018623;28;20219;-65
2022/06/04 02:16:13;;;;;;;3.37;3.00;;;17.30;96.70;;;;;;5010942;28;20219;-60
2022/06/04 02:18:39;;;;;;;4.97;2.80;;;17.20;96.40;;;;;;5007718;28;20212;-66
2022/06/04 02:21:05;;;;;;;2.87;2.60;;;17.20;96.30;;;;;;5006911;28;20972;-67
2022/06/04 02:23:31;;;;;;;3.80;2.27;;;17.20;96.20;;;;;;5027689;28;20254;-66
2022/06/04 02:25:58;;;;;;;2.83;2.63;;;17.30;96.20;;;;;;5005039;28;20210;-68
2022/06/04 02:28:24;;;;;;;5.07;2.83;;;17.30;96.10;;;;;;5041248;28;20274;-68
2022/06/04 02:30:53;;;;;;;2.80;2.50;;;17.30;96.40;;;;;;5032159;28;20221;-69
2022/06/04 02:33:52;;;;;;;3.97;2.37;;;17.20;96.40;;;;;;5020221;28;20209;-68
2022/06/04 02:36:48;;;;;;;2.30;2.10;;;17.30;96.10;;;;;;5006508;28;20575;-70
2022/06/04 02:39:29;;;;;;;3.30;2.43;;;17.20;95.90;;;;;;5018765;28;20196;-69
2022/06/04 02:42:11;;;;;;;3.10;2.50;;;17.20;95.80;;;;;;5035265;28;20216;-69
2022/06/04 02:44:51;;;;;;;3.17;2.23;;;17.20;95.70;;;;;;5013711;28;20204;-69
2022/06/04 02:47:31;;;;;;;4.60;2.47;;;17.20;95.60;;;;;;5006256;28;20717;-70
2022/06/04 02:50:12;;;;;;;3.20;2.63;;;17.10;95.70;;;;;;5015000;28;20608;-69
2022/06/04 02:52:38;;;;;;;2.63;2.43;;;17.10;95.80;;;;;;5018920;28;20719;-69
2022/06/04 02:55:07;;;;;;;4.00;3.07;;;17.10;95.60;;;;;;5018729;28;20315;-70
2022/06/04 02:57:34;;;;;;;2.47;2.23;;;17.00;95.60;;;;;;5035565;28;20200;-69
2022/06/04 03:00:01;;;;;;;2.37;2.17;;;16.90;95.50;;;;;;5020533;28;20204;-68
2022/06/04 03:02:30;;;;;;;3.30;2.60;;;16.90;95.50;;;;;;5031143;28;20740;-68
2022/06/04 03:04:56;;;;;;;3.53;2.73;;;16.90;95.60;;;;;;5015421;28;20207;-69
2022/06/04 03:07:23;;;;;;;2.53;2.33;;;16.90;95.70;;;;;;5035844;28;20184;-69
2022/06/04 03:09:54;;;;;;;4.03;2.70;;;16.90;95.50;;;;;;5025934;28;20259;-70
2022/06/04 03:12:20;;;;;;;3.13;2.70;;;16.90;95.30;;;;;;5006201;28;20192;-69
2022/06/04 03:14:46;;;;;;;3.00;2.50;;;16.80;95.50;;;;;;5022067;28;20215;-69
2022/06/04 03:17:12;;;;;;;2.63;2.37;;;16.80;95.60;;;;;;5034601;28;20199;-67
2022/06/04 03:19:38;;;;;;;2.67;2.47;;;16.70;95.50;;;;;;5028371;28;20212;-68
2022/06/04 03:22:04;;;;;;;5.33;2.87;;;16.70;95.60;;;;;;5018248;28;20633;-68
2022/06/04 03:24:30;;;;;;;3.57;3.27;;;16.60;95.80;;;;;;5029064;28;20631;-67
2022/06/04 03:26:55;;;;;;;2.73;2.53;;;16.60;95.80;;;;;;5026634;28;20198;-69
2022/06/04 03:29:21;;;;;;;3.17;2.60;;;16.60;96.00;;;;;;5035745;28;20210;-68
2022/06/04 03:31:46;;;;;;;4.67;2.53;;;16.60;96.10;;;;;;5013808;28;20221;-68
2022/06/04 03:34:12;;;;;;;3.73;2.80;;;16.60;95.90;;;;;;5021323;28;20205;-68
2022/06/04 03:36:38;;;;;;;4.93;3.00;;;16.60;96.00;;;;;;5016304;28;20193;-68
2022/06/04 03:39:07;;;;;;;3.00;2.80;;;16.60;96.20;;;;;;5018591;28;20610;-68
2022/06/04 03:41:32;;;;;;;3.60;3.07;;;16.60;96.20;;;;;;5012435;28;20212;-67
2022/06/04 03:43:58;;;;;;;3.40;3.10;;;16.60;95.90;;;;;;5026182;28;20203;-68
2022/06/04 03:46:25;;;;;;;2.70;2.50;;;16.60;96.10;;;;;;5017084;28;20195;-68
2022/06/04 03:48:52;;;;;;;4.87;2.20;;;16.60;96.30;;;;;;5040059;28;20215;-68
2022/06/04 03:51:17;;;;;;;4.77;2.53;;;16.50;96.10;;;;;;5013253;28;20196;-68
2022/06/04 03:53:43;;;;;;;3.33;2.57;;;16.60;96.00;;;;;;5038354;28;20278;-68
2022/06/04 03:56:09;;;;;;;3.10;2.47;;;16.50;96.00;;;;;;5016242;28;20212;-68
2022/06/04 03:58:34;;;;;;;3.03;2.13;;;16.60;96.00;;;;;;5027926;28;20235;-65
2022/06/04 04:01:00;;;;;;;3.50;2.13;;;16.50;96.00;;;;;;5010704;28;20186;-70
2022/06/04 04:03:26;;;;;;;3.03;2.53;;;16.60;95.90;;;;;;5022350;28;20851;-68
2022/06/04 04:05:55;;;;;;;2.90;2.57;;;16.70;95.60;;;;;;5010531;28;20220;-71
2022/06/04 04:08:23;;;;;;;4.40;2.67;;;16.70;95.30;;;;;;5036476;28;20205;-70
2022/06/04 04:10:49;;;;;;;3.40;2.27;;;16.60;95.60;;;;;;5005321;28;20215;-68
2022/06/04 04:13:16;;;;;;;3.90;2.70;;;16.70;95.40;;;;;;5017133;28;20293;-67
2022/06/04 04:15:42;;;;;;;2.87;2.57;;;16.80;95.20;;;;;;5009250;28;20625;-68
2022/06/04 04:18:09;;;;;;;3.27;2.27;;;16.80;94.80;;;;;;5024541;28;20820;-69
2022/06/04 04:20:37;;;;;;;2.63;2.33;;;16.90;94.80;;;;;;5022681;28;20292;-69
2022/06/04 04:23:05;;;;;;;2.80;2.40;;;16.90;94.80;;;;;;5033911;28;20216;-69
2022/06/04 04:25:32;;;;;;;4.27;2.33;;;16.80;94.80;;;;;;5012255;28;20198;-68
2022/06/04 04:27:58;;;;;;;3.97;2.83;;;16.90;94.60;;;;;;5028947;28;20297;-69
2022/06/04 04:30:27;;;;;;;3.47;2.27;;;16.80;94.50;;;;;;5029918;28;20255;-68
2022/06/04 04:32:53;;;;;;;5.17;2.67;;;16.80;94.40;;;;;;5047566;28;20201;-68
2022/06/04 04:35:22;;;;;;;3.03;2.63;;;16.90;94.40;;;;;;5012558;28;20217;-70
2022/06/04 04:37:48;;;;;;;4.10;2.70;;;16.80;94.10;;;;;;5034583;28;20200;-69
2022/06/04 04:40:16;;;;;;;4.27;2.90;;;16.80;94.30;;;;;;5020465;28;20286;-69
2022/06/04 04:42:48;;;;;;;2.83;2.60;;;16.80;94.30;;;;;;5047100;28;20203;-69
2022/06/04 04:45:15;;;;;;;2.30;2.10;;;16.80;94.20;;;;;;5015724;28;20196;-68
2022/06/04 04:47:43;;;;;;;2.97;2.70;;;16.90;94.10;;;;;;5032499;28;20213;-67
2022/06/04 04:50:20;;;;;;;5.30;2.93;;;16.90;94.00;;;;;;5018879;28;20291;-67
2022/06/04 04:52:46;;;;;;;3.33;2.03;;;17.00;93.80;;;;;;5024609;28;20200;-67
2022/06/04 04:55:12;;;;;;;4.97;1.93;;;17.00;93.90;;;;;;5017440;28;20228;-68
2022/06/04 04:57:37;;;;;;;4.00;2.73;;;17.00;94.00;;;;;;5021286;28;20684;-67
2022/06/04 05:00:07;;;;;;;3.77;2.40;;;17.00;93.90;;;;;;5015862;28;20205;-68
2022/06/04 05:02:34;;;;;;;4.23;2.37;;;16.90;93.90;;;;;;5047221;28;20210;-68
2022/06/04 05:04:59;;;;;;;2.73;2.47;;;17.00;93.90;;;;;;5015390;28;20747;-68
2022/06/04 05:07:25;;;;;;;3.83;2.80;;;17.00;94.10;;;;;;5037772;28;20192;-66
2022/06/04 05:09:50;;;;;;;4.03;2.43;;;17.10;93.80;;;;;;5027966;28;20578;-66
2022/06/04 05:12:16;;;;;;;3.40;2.30;;;17.20;93.60;;;;;;5033825;28;20283;-66
2022/06/04 05:14:42;;;;;;;3.37;2.30;;;17.20;93.60;;;;;;5026235;28;20196;-66
2022/06/04 05:17:08;;;;;;;2.60;2.40;;;17.20;93.60;;;;;;5035466;28;20210;-66
2022/06/04 05:19:34;;;;;;;2.53;2.33;;;17.20;93.40;;;;;;5013314;28;20220;-66
2022/06/04 05:21:59;;;;;;;2.40;2.20;;;17.20;93.40;;;;;;5007149;28;20976;-66
2022/06/04 05:24:31;;;;;;;2.63;2.43;;;17.20;93.20;;;;;;5027896;28;20210;-67
2022/06/04 05:26:57;;;;;;;2.23;2.10;;;17.20;93.10;;;;;;5033723;28;20739;-68
2022/06/04 05:29:23;;;;;;;3.23;2.17;;;17.30;93.40;;;;;;5016636;28;20335;-67
2022/06/04 05:31:49;;;;;;;3.20;2.40;;;17.30;93.20;;;;;;5027867;28;20563;-67
2022/06/04 05:34:17;;;;;;;2.20;2.00;;;17.50;92.70;;;;;;5032078;28;20217;-68
2022/06/04 05:36:43;;;;;;;2.33;2.13;;;17.40;92.50;;;;;;5039785;28;20994;-68
2022/06/04 05:39:13;;;;;;;2.57;2.33;;;17.40;92.50;;;;;;5033474;28;20575;-68
2022/06/04 05:41:39;;;;;;;2.80;2.60;;;17.50;92.10;;;;;;5018520;28;20675;-67
2022/06/04 05:44:06;;;;;;;3.90;3.00;;;17.40;92.00;;;;;;5022334;28;20660;-67
2022/06/04 05:46:31;;;;;;;4.40;2.97;;;17.50;92.10;;;;;;5024860;28;20284;-67
2022/06/04 05:48:59;;;;;;;4.27;2.33;;;17.50;92.10;;;;;;5026339;28;20299;-66
2022/06/04 05:51:28;;;;;;;2.10;1.97;;;17.70;91.80;;;;;;5014041;28;20201;-65
2022/06/04 05:53:54;;;;;;;2.73;2.37;;;17.90;91.70;;;;;;5022590;28;20571;-67
2022/06/04 05:56:28;;;;;;;5.23;2.47;;;18.00;91.70;;;;;;5019380;28;20200;-66
2022/06/04 05:58:58;;;;;;;3.50;2.30;;;18.10;91.00;;;;;;5005538;28;20198;-67
2022/06/04 06:01:26;;;;;;;2.47;2.27;;;18.10;90.90;;;;;;5015412;28;20217;-68
2022/06/04 06:03:53;;;;;;;4.53;2.47;;;18.20;90.30;;;;;;5020553;28;20214;-67
2022/06/04 06:06:22;;;;;;;4.87;2.30;;;18.10;90.50;;;;;;5018571;28;20212;-70
2022/06/04 06:08:48;;;;;;;3.40;2.43;;;18.10;91.00;;;;;;5024820;28;20206;-71
2022/06/04 06:11:15;;;;;;;2.60;2.37;;;18.30;90.30;;;;;;5014039;28;20649;-71
2022/06/04 06:13:42;;;;;;;2.63;2.43;;;18.40;89.80;;;;;;5033104;28;20275;-70
2022/06/04 06:16:13;;;;;;;4.10;2.53;;;18.40;89.30;;;;;;5014630;28;20194;-68
2022/06/04 06:18:39;;;;;;;3.47;2.50;;;18.40;88.30;;;;;;5022849;28;20634;-71
2022/06/04 06:21:10;;;;;;;3.10;2.40;;;18.40;88.60;;;;;;5013392;28;20334;-69
2022/06/04 06:23:37;;;;;;;2.87;2.67;;;18.40;88.90;;;;;;5011051;28;20682;-69
2022/06/04 06:26:11;;;;;;;2.53;2.17;;;18.40;88.30;;;;;;5009889;28;20196;-69
2022/06/04 06:28:38;;;;;;;4.37;2.13;;;18.40;88.10;;;;;;5009572;28;20204;-69
2022/06/04 06:31:06;;;;;;;3.30;2.27;;;18.50;87.60;;;;;;5031802;28;20266;-68
2022/06/04 06:33:31;;;;;;;3.03;2.43;;;18.50;87.00;;;;;;5017799;28;20314;-68
2022/06/04 06:35:59;;;;;;;2.80;2.50;;;18.50;87.80;;;;;;5025841;28;20262;-67
2022/06/04 06:38:26;;;;;;;2.87;2.10;;;18.50;87.30;;;;;;5029543;28;20739;-67
2022/06/04 06:40:56;;;;;;;3.60;2.20;;;18.60;85.80;;;;;;5014393;28;20230;-67
2022/06/04 06:43:31;;;;;;;2.60;2.40;;;18.70;86.40;;;;;;5032448;28;20213;-68
2022/06/04 06:46:09;;;;;;;3.20;2.23;;;18.80;85.60;;;;;;5019212;28;20194;-68
2022/06/04 06:48:37;;;;;;;2.93;2.10;;;18.90;86.10;;;;;;5018283;28;20219;-68
2022/06/04 06:51:12;;;;;;;2.70;2.03;;;19.10;85.10;;;;;;5013260;28;20187;-68
2022/06/04 06:53:38;;;;;;;2.70;2.33;;;19.30;83.00;;;;;;5007130;28;20455;-68
2022/06/04 06:56:19;;;;;;;4.93;2.43;;;19.30;81.40;;;;;;5009251;28;20195;-67
2022/06/04 06:58:45;;;;;;;2.30;2.10;;;19.30;80.90;;;;;;5004730;28;20571;-68
2022/06/04 07:01:12;;;;;;;2.20;1.93;;;19.40;80.00;;;;;;5020478;28;20670;-68
2022/06/04 07:03:38;;;;;;;2.40;2.10;;;19.40;80.10;;;;;;5021755;28;20228;-67
2022/06/04 07:06:07;;;;;;;2.47;2.23;;;19.40;79.90;;;;;;5014488;28;20183;-67
2022/06/04 07:08:33;;;;;;;5.10;2.40;;;19.50;79.40;;;;;;5027122;28;20669;-66
2022/06/04 07:10:58;;;;;;;2.20;2.00;;;19.60;78.20;;;;;;5015030;28;20200;-67
2022/06/04 07:13:24;;;;;;;3.13;2.07;;;19.60;77.80;;;;;;5031823;28;20206;-67
2022/06/04 07:15:49;;;;;;;3.10;2.30;;;19.70;77.90;;;;;;5014080;28;20192;-68
2022/06/04 07:18:16;;;;;;;2.33;2.13;;;19.70;77.30;;;;;;5036037;28;20605;-67
2022/06/04 07:20:42;;;;;;;1.77;1.67;;;19.80;77.70;;;;;;5023620;28;20211;-68
2022/06/04 07:23:08;;;;;;;4.13;2.70;;;20.00;75.90;;;;;;5019007;28;20212;-67
2022/06/04 07:25:35;;;;;;;2.63;2.03;;;20.20;74.90;;;;;;5009480;28;20208;-67
2022/06/04 07:28:00;;;;;;;2.13;1.93;;;20.30;74.80;;;;;;5006955;28;20204;-69
2022/06/04 07:30:26;;;;;;;2.77;1.90;;;20.40;75.80;;;;;;5030901;28;20195;-67
2022/06/04 07:32:52;;;;;;;2.00;1.90;;;20.50;75.40;;;;;;5011790;28;20278;-67
2022/06/04 07:35:18;;;;;;;3.60;2.40;;;20.50;75.60;;;;;;5016966;28;20268;-67
2022/06/04 07:37:43;;;;;;;4.20;1.90;;;20.60;76.00;;;;;;5032834;28;20207;-68
2022/06/04 07:40:10;;;;;;;2.80;2.17;;;20.60;76.50;;;;;;5017001;28;20242;-68
2022/06/04 07:42:36;;;;;;;2.10;1.90;;;20.60;76.10;;;;;;5040844;28;20262;-68
2022/06/04 07:45:02;;;;;;;2.40;2.13;;;20.60;75.60;;;;;;5019351;28;20200;-67
2022/06/04 07:47:28;;;;;;;2.17;1.93;;;20.60;72.70;;;;;;5033885;28;20218;-71
2022/06/04 07:49:57;;;;;;;2.10;1.83;;;20.60;73.10;;;;;;5024436;28;20284;-70
2022/06/04 07:52:23;;;;;;;2.50;2.30;;;20.60;74.50;;;;;;5032135;28;20203;-65
2022/06/04 07:54:48;;;;;;;2.33;2.17;;;20.60;73.10;;;;;;5025875;28;20246;-68
2022/06/04 07:57:14;;;;;;;4.83;2.00;;;20.60;74.00;;;;;;5036124;28;20285;-69
2022/06/04 07:59:39;;;;;;;2.53;2.20;;;20.50;73.90;;;;;;5020261;28;20219;-69
2022/06/04 08:02:05;;;;;;;2.30;2.10;;;20.50;74.00;;;;;;5018473;28;20228;-69
2022/06/04 08:04:30;;;;;;;2.20;2.00;;;20.50;74.10;;;;;;5030567;28;20230;-68
2022/06/04 08:06:56;;;;;;;2.43;1.50;;;20.60;71.20;;;;;;5042769;28;20203;-66
2022/06/04 08:09:22;;;;;;;4.00;2.07;;;20.60;71.80;;;;;;5032644;28;20698;-67
2022/06/04 08:11:47;;;;;;;2.67;1.73;;;20.60;71.90;;;;;;5040498;28;20286;-68
2022/06/04 08:14:22;;;;;;;3.40;1.60;;;20.60;73.30;;;;;;5030984;28;20208;-68
2022/06/04 08:16:53;;;;;;;1.87;1.70;;;20.70;73.00;;;;;;5015647;28;20203;-68
2022/06/04 08:19:20;;;;;;;1.90;1.80;;;20.80;72.30;;;;;;5023461;28;20196;-68
2022/06/04 08:21:46;;;;;;;1.70;1.53;;;20.90;73.40;;;;;;5048506;28;20274;-68
2022/06/04 08:24:13;;;;;;;1.70;1.60;;;21.10;70.70;;;;;;5035698;28;20282;-69
2022/06/04 08:26:45;;;;;;;4.20;2.10;;;21.40;70.60;;;;;;5020580;28;20326;-68
2022/06/04 08:29:11;;;;;;;2.63;1.75;;;21.20;69.60;;;;;;5007231;28;20295;-68
2022/06/04 08:31:37;;;;;;;2.90;1.37;;;21.10;69.60;;;;;;5017174;28;20215;-67
2022/06/04 08:34:03;;;;;;;2.93;2.10;;;21.10;69.20;;;;;;5030911;28;20650;-67
2022/06/04 08:36:28;;;;;;;2.17;2.00;;;21.20;68.50;;;;;;5023068;28;20184;-66
2022/06/04 08:38:54;;;;;;;2.80;1.77;;;21.30;69.20;;;;;;5039923;28;20200;-67
2022/06/04 08:42:01;;;;;;;1.63;1.52;;;21.40;70.00;;;;;;5015324;28;20187;-67
2022/06/04 08:44:31;;;;;;;2.10;1.90;;;21.70;68.50;;;;;;5024111;28;20678;-68
2022/06/04 08:47:00;;;;;;;2.28;1.60;;;21.80;67.90;;;;;;5029769;28;20212;-68
2022/06/04 08:49:39;;;;;;;4.72;1.77;;;21.80;68.00;;;;;;5026802;28;20316;-68
2022/06/04 08:52:26;;;;;;;3.83;3.10;;;21.90;67.20;;;;;;5008089;28;20217;-68
2022/06/04 08:57:47;;;;;;;2.33;2.13;;;21.90;67.40;;;;;;5016587;28;20214;-68
2022/06/04 09:00:30;;;;;;;9.97;8.33;;;21.80;66.50;;;;;;5006419;28;20200;-68
2022/06/04 09:03:00;;;;;;;4.40;3.07;;;21.60;66.40;;;;;;5007580;28;20224;-68
2022/06/04 09:05:44;;;;;;;2.05;1.85;;;21.50;67.10;;;;;;5014727;28;20210;-69
2022/06/04 09:08:14;;;;;;;2.13;1.60;;;21.40;67.80;;;;;;5018792;28;20203;-67
2022/06/04 09:10:49;;;;;;;2.53;1.90;;;21.40;67.50;;;;;;5013465;28;20259;-67
2022/06/04 09:13:56;;;;;;;2.30;2.10;;;21.40;67.00;;;;;;5008100;28;20204;-68
2022/06/04 09:16:34;;;;;;;2.20;2.10;;;21.30;67.80;;;;;;5010849;28;20199;-68
2022/06/04 09:19:02;;;;;;;1.80;1.70;;;21.40;68.00;;;;;;5004932;28;20197;-70
2022/06/04 09:21:34;;;;;;;3.80;2.28;;;21.40;67.60;;;;;;5032836;28;20196;-71
2022/06/04 09:23:59;;;;;;;4.17;3.20;;;21.40;68.50;;;;;;5005121;28;20666;-68
2022/06/04 09:26:32;;;;;;;6.05;3.72;;;21.60;68.60;;;;;;5032874;28;20225;-68
2022/06/04 09:29:33;;;;;;;3.63;3.00;;;21.80;68.30;;;;;;5016712;28;20560;-68
2022/06/04 09:32:11;;;;;;;7.80;7.20;;;22.00;68.50;;;;;;5007117;28;21604;-68
2022/06/04 09:34:39;;;;;;;5.55;3.00;;;22.30;68.90;;;;;;5026835;28;20527;-68
2022/06/04 09:37:07;;;;;;;23.52;20.38;;;22.60;69.00;;;;;;5022491;28;20612;-68
2022/06/04 09:39:36;;;;;;;10.35;9.02;;;22.90;67.80;;;;;;5020811;28;20819;-69
2022/06/04 09:42:13;;;;;;;5.43;3.40;;;23.20;66.60;;;;;;5023829;28;20208;-69
2022/06/04 09:44:58;;;;;;;2.55;2.33;;;23.40;68.80;;;;;;5016518;28;20184;-67
2022/06/04 09:47:40;;;;;;;2.45;2.25;;;23.60;68.60;;;;;;5023436;28;20211;-68
2022/06/04 09:50:27;;;;;;;3.28;2.80;;;23.90;69.10;;;;;;5017477;28;21017;-68
2022/06/04 09:53:18;;;;;;;2.90;2.70;;;24.40;65.00;;;;;;5015739;28;20212;-68
2022/06/04 09:55:49;;;;;;;4.13;2.03;;;24.80;64.50;;;;;;5014882;28;20223;-68
2022/06/04 09:58:21;;;;;;;2.20;2.05;;;25.10;62.30;;;;;;5011011;28;20257;-69
2022/06/04 10:01:00;;;;;;;1.98;1.38;;;25.30;60.40;;;;;;5016624;28;20197;-69
2022/06/04 10:03:28;;;;;;;1.60;1.50;;;25.10;60.10;;;;;;5016096;28;20230;-67
2022/06/04 10:06:11;;;;;;;2.97;1.50;;;24.90;60.50;;;;;;5021535;28;20194;-67
2022/06/04 10:11:31;;;;;;;2.00;1.90;;;24.70;60.40;;;;;;5007567;28;20238;-81
2022/06/04 10:13:58;;;;;;;2.40;1.80;;;24.70;60.40;;;;;;5014988;28;20241;-76
2022/06/04 10:16:40;;;;;;;3.63;1.90;;;24.50;72.70;;;;;;5033252;28;20197;-62
2022/06/04 10:19:12;;;;;;;2.00;1.90;;;23.80;67.20;;;;;;5004101;28;20205;-59
2022/06/04 10:21:41;;;;;;;1.73;1.63;;;23.20;69.60;;;;;;5045778;28;20225;-60
2022/06/04 10:24:30;;;;;;;3.08;2.20;;;22.90;70.40;;;;;;5005345;28;20190;-63
2022/06/04 10:27:01;;;;;;;2.28;2.13;;;22.80;77.30;;;;;;5015642;28;20183;-63
2022/06/04 10:30:04;;;;;;;2.42;2.30;;;22.90;70.90;;;;;;5015493;28;20173;-63
2022/06/04 10:32:56;;;;;;;2.63;1.90;;;23.00;71.80;;;;;;5014822;28;20204;-62
2022/06/04 10:35:54;;;;;;;2.47;1.77;;;23.30;65.70;;;;;;5010462;28;20204;-62
2022/06/04 10:38:30;;;;;;;1.90;1.73;;;23.60;64.60;;;;;;5010341;28;20600;-63
2022/06/04 10:41:26;;;;;;;2.20;1.90;;;23.80;64.50;;;;;;5019415;28;20209;-63
2022/06/04 10:44:16;;;;;;;2.30;2.20;;;24.00;64.90;;;;;;5009086;28;20211;-60
2022/06/04 10:46:58;;;;;;;2.63;2.42;;;24.30;64.10;;;;;;5004367;28;20179;-61
2022/06/04 10:50:01;;;;;;;3.20;2.15;;;24.50;64.20;;;;;;5016152;28;20225;-63
2022/06/04 10:52:51;;;;;;;4.38;2.15;;;24.60;62.80;;;;;;5004757;28;20252;-62
2022/06/04 10:55:35;;;;;;;2.15;2.05;;;25.00;63.30;;;;;;5006267;28;20227;-63
2022/06/04 10:58:26;;;;;;;2.30;2.10;;;25.40;62.10;;;;;;5015658;28;20619;-62
2022/06/04 11:01:01;;;;;;;1.70;1.60;;;25.80;58.50;;;;;;5026015;28;20182;-62
2022/06/04 11:04:08;;;;;;;3.00;1.88;;;26.10;59.90;;;;;;5018054;28;20775;-62
2022/06/04 11:06:41;;;;;;;2.85;2.17;;;26.40;58.60;;;;;;5010035;28;20194;-63
2022/06/04 11:09:15;;;;;;;4.43;2.05;;;26.40;56.90;;;;;;5025715;28;20198;-62
2022/06/04 11:12:03;;;;;;;5.93;5.28;;;26.40;56.60;;;;;;5004990;28;20460;-61
2022/06/04 11:14:49;;;;;;;3.67;3.28;;;26.30;57.40;;;;;;5020299;28;20270;-69
2022/06/04 11:17:21;;;;;;;21.73;19.65;;;26.30;57.60;;;;;;5012770;28;20206;-62
2022/06/04 11:20:25;;;;;;;23.95;21.70;;;26.40;57.60;;;;;;5010414;28;20210;-59
2022/06/04 11:23:20;;;;;;;7.07;2.90;;;26.70;55.50;;;;;;4995830;28;20223;-63
2022/06/04 11:25:49;;;;;;;4.72;3.03;;;26.90;55.70;;;;;;5013761;28;20654;-62
2022/06/04 11:28:23;;;;;;;2.72;2.38;;;27.00;56.00;;;;;;5015098;28;20215;-62
2022/06/04 11:30:49;;;;;;;2.08;1.95;;;27.10;55.40;;;;;;5014225;28;20275;-63
2022/06/04 11:33:47;;;;;;;3.85;3.55;;;27.10;55.80;;;;;;5018257;28;20210;-62
2022/06/04 11:36:31;;;;;;;2.88;2.67;;;27.10;56.80;;;;;;5003872;28;20188;-62
2022/06/04 11:39:37;;;;;;;4.35;4.00;;;27.40;54.90;;;;;;5015093;28;20199;-63
2022/06/04 11:42:36;;;;;;;24.00;21.65;;;27.60;55.20;;;;;;5008736;28;20247;-63
2022/06/04 11:45:28;;;;;;;4.30;4.00;;;27.80;54.40;;;;;;5017009;28;20545;-63
2022/06/04 11:48:18;;;;;;;2.65;2.45;;;28.40;54.20;;;;;;5014036;28;20234;-62
2022/06/04 11:50:52;;;;;;;3.05;2.60;;;28.70;52.80;;;;;;5013589;28;20210;-63
2022/06/04 11:53:41;;;;;;;4.90;2.70;;;29.10;52.10;;;;;;5014229;28;20638;-62
2022/06/04 11:56:21;;;;;;;6.88;6.28;;;29.30;52.80;;;;;;5013043;28;20215;-63
2022/06/04 11:59:06;;;;;;;5.05;3.30;;;30.00;52.90;;;;;;5015416;28;20184;-62
2022/06/04 12:01:43;;;;;;;9.23;4.47;;;30.20;50.80;;;;;;5011667;28;20686;-63
2022/06/04 12:05:01;;;;;;;2.50;2.30;;;29.90;50.30;;;;;;5016350;28;20287;-62
2022/06/04 12:07:40;;;;;;;2.28;2.17;;;29.70;51.80;;;;;;5012590;28;20204;-64
2022/06/04 12:10:15;;;;;;;2.97;2.50;;;30.10;51.80;;;;;;5017670;28;20737;-63
2022/06/04 12:13:09;;;;;;;2.90;2.55;;;30.80;50.70;;;;;;5011516;28;21167;-62
2022/06/04 12:15:43;;;;;;;3.67;1.90;;;31.00;50.00;;;;;;5012264;28;20180;-64
2022/06/04 12:18:33;;;;;;;2.15;2.05;;;30.50;49.30;;;;;;5012883;28;20187;-62
2022/06/04 12:26:38;;;;;;;3.15;2.00;;;31.90;47.70;;;;;;5011197;28;20203;-62
2022/06/04 12:29:29;;;;;;;2.67;2.42;;;31.60;47.90;;;;;;5014087;28;20226;-63
2022/06/04 12:32:19;;;;;;;1.80;1.70;;;31.40;46.70;;;;;;5015510;28;20192;-62
2022/06/04 12:34:45;;;;;;;2.17;1.90;;;30.80;46.90;;;;;;5005219;28;20332;-71
2022/06/04 12:37:23;;;;;;;2.20;2.00;;;30.40;48.10;;;;;;5021662;28;20210;-69
2022/06/04 12:39:49;;;;;;;2.58;2.38;;;29.90;49.00;;;;;;5016190;28;20199;-69
2022/06/04 12:42:17;;;;;;;3.50;2.25;;;29.50;49.00;;;;;;5011259;28;20227;-68
2022/06/04 12:44:58;;;;;;;2.00;1.90;;;29.10;50.50;;;;;;5037403;28;20187;-69
2022/06/04 12:47:26;;;;;;;2.10;1.90;;;29.10;50.10;;;;;;5006880;28;20299;-66
2022/06/04 12:50:14;;;;;;;3.58;2.13;;;29.00;49.90;;;;;;5047442;28;20216;-69
2022/06/04 12:53:01;;;;;;;2.83;2.63;;;29.00;50.20;;;;;;5006681;28;20242;-70
2022/06/04 12:55:37;;;;;;;3.40;1.83;;;28.90;50.00;;;;;;5007980;28;20582;-68
2022/06/04 12:58:32;;;;;;;3.08;2.50;;;28.70;50.30;;;;;;5006411;28;20203;-70
2022/06/04 13:01:02;;;;;;;2.10;2.00;;;28.10;50.70;;;;;;5013568;28;20208;-68
2022/06/04 13:03:35;;;;;;;4.00;3.40;;;28.10;50.60;;;;;;5011608;28;20223;-69
2022/06/04 13:06:12;;;;;;;2.78;2.42;;;28.00;51.70;;;;;;5030979;28;20226;-68
2022/06/04 13:09:12;;;;;;;2.00;1.60;;;28.20;50.50;;;;;;5022452;28;20708;-71
2022/06/04 13:11:50;;;;;;;2.75;1.75;;;28.60;50.60;;;;;;5015972;28;20295;-70
2022/06/04 13:14:32;;;;;;;2.88;2.20;;;29.30;49.70;;;;;;5006660;28;20209;-69
2022/06/04 13:17:11;;;;;;;3.40;1.85;;;29.50;49.30;;;;;;5021255;28;20202;-70
2022/06/04 13:19:58;;;;;;;3.22;1.98;;;29.60;49.50;;;;;;5015554;28;20661;-65
2022/06/04 13:22:37;;;;;;;2.20;1.95;;;29.50;48.10;;;;;;5013132;28;20632;-62
2022/06/04 13:25:10;;;;;;;1.77;1.67;;;30.00;49.10;;;;;;5017971;28;20602;-62
2022/06/04 13:27:56;;;;;;;2.25;2.05;;;30.80;47.20;;;;;;5013368;28;20202;-64
2022/06/04 13:30:28;;;;;;;2.38;2.17;;;31.10;47.40;;;;;;5018580;28;20184;-63
2022/06/04 13:33:13;;;;;;;2.05;1.95;;;31.20;46.50;;;;;;5019570;28;20204;-63
2022/06/04 13:35:46;;;;;;;2.95;2.33;;;30.80;47.00;;;;;;5013481;28;20274;-63
2022/06/04 13:38:40;;;;;;;3.65;3.35;;;30.40;47.10;;;;;;5021145;28;20756;-62